Time;durP1;ratioP1;P1;durP2;ratioP2;P2;SDS_P1;SDS_P2;PMS_P1;PMS_P2;Temp;Humidity;BMP_temperature;BMP_pressure;BME280_temperature;BME280_humidity;BME280_pressure;Samples;Min_cycle;Max_cycle;Signal;HPM_P1;HPM_P2
2023/11/20 00:09:41;;;;;;;;;;;11.70;99.90;;;;;;6717123;88;20631;-80
2023/11/20 00:19:42;;;;;;;;;;;11.70;99.90;;;;;;6720577;88;20079;-80
2023/11/20 00:29:43;;;;;;;;;;;11.80;99.90;;;;;;6714206;88;20128;-80
2023/11/20 00:39:43;;;;;;;;;;;11.90;99.90;;;;;;6711959;88;20144;-80
2023/11/20 00:49:44;;;;;;;;;;;12.00;99.90;;;;;;6712143;88;20078;-80
2023/11/20 00:59:45;;;;;;;;;;;12.00;99.90;;;;;;6713205;88;20051;-80
2023/11/20 01:09:45;;;;;;;;;;;12.10;99.90;;;;;;6713434;88;20058;-80
2023/11/20 01:19:46;;;;;;;;;;;12.20;99.90;;;;;;6726683;88;20058;-80
2023/11/20 01:29:46;;;;;;;;;;;12.20;99.90;;;;;;6730420;88;20205;-80
2023/11/20 01:39:46;;;;;;;;;;;12.20;99.90;;;;;;6730575;88;20061;-80
2023/11/20 01:49:47;;;;;;;;;;;12.20;99.90;;;;;;6727605;88;20078;-81
2023/11/20 01:59:47;;;;;;;;;;;12.20;99.90;;;;;;6729687;88;20082;-81
2023/11/20 02:09:48;;;;;;;;;;;12.10;99.90;;;;;;6728083;88;20053;-81
2023/11/20 02:19:48;;;;;;;;;;;12.00;99.90;;;;;;6727313;88;20075;-80
2023/11/20 02:29:52;;;;;;;;;;;11.80;99.90;;;;;;6729843;88;20046;-80
2023/11/20 02:39:52;;;;;;;;;;;12.10;99.90;;;;;;6731905;88;20112;-81
2023/11/20 02:49:53;;;;;;;;;;;11.90;99.90;;;;;;6725807;88;20047;-80
2023/11/20 02:59:53;;;;;;;;;;;11.40;99.90;;;;;;6717710;88;20150;-80
2023/11/20 03:09:54;;;;;;;;;;;11.00;99.90;;;;;;6712487;88;20110;-81
2023/11/20 03:19:54;;;;;;;;;;;10.90;99.90;;;;;;6728846;78;20497;-77
2023/11/20 03:29:55;;;;;;;;;;;11.00;99.90;;;;;;6720227;88;20054;-77
2023/11/20 03:39:56;;;;;;;;;;;11.20;99.90;;;;;;6728762;88;20050;-77
2023/11/20 03:49:56;;;;;;;;;;;11.30;99.90;;;;;;6726494;88;20058;-77
2023/11/20 03:59:57;;;;;;;;;;;11.10;99.90;;;;;;6729750;88;20072;-77
2023/11/20 04:09:57;;;;;;;;;;;11.10;99.90;;;;;;6709555;88;20090;-77
2023/11/20 04:19:58;;;;;;;;;;;11.30;99.90;;;;;;6730012;88;20093;-77
2023/11/20 04:29:58;;;;;;;;;;;11.40;99.90;;;;;;6721241;88;20076;-77
2023/11/20 04:39:59;;;;;;;;;;;11.40;99.90;;;;;;6732969;88;20074;-77
2023/11/20 04:49:59;;;;;;;;;;;11.30;99.90;;;;;;6728145;88;20649;-76
2023/11/20 05:00:01;;;;;;;;;;;11.30;99.90;;;;;;6733113;88;20552;-77
2023/11/20 05:10:01;;;;;;;;;;;11.10;99.90;;;;;;6735599;88;20127;-77
2023/11/20 05:20:02;;;;;;;;;;;10.80;99.90;;;;;;6712182;88;20089;-77
2023/11/20 05:30:05;;;;;;;;;;;10.70;99.90;;;;;;6741746;88;20046;-78
2023/11/20 05:40:06;;;;;;;;;;;10.60;99.90;;;;;;6726612;88;20489;-77
2023/11/20 05:50:07;;;;;;;;;;;10.70;99.90;;;;;;6634793;89;20057;-77
2023/11/20 06:00:10;;;;;;;;;;;10.80;99.90;;;;;;6633624;89;20120;-77
2023/11/20 06:10:11;;;;;;;;;;;10.70;99.90;;;;;;6736338;88;20060;-76
2023/11/20 06:20:13;;;;;;;;;;;10.80;99.90;;;;;;6736776;88;20886;-79
2023/11/20 06:30:13;;;;;;;;;;;10.60;99.90;;;;;;6736362;88;20143;-78
2023/11/20 06:40:13;;;;;;;;;;;10.50;99.90;;;;;;6683011;88;20066;-77
2023/11/20 06:50:14;;;;;;;;;;;10.50;99.90;;;;;;6645732;89;20119;-78
2023/11/20 07:00:14;;;;;;;;;;;10.40;99.90;;;;;;6712232;88;20050;-78
2023/11/20 07:10:15;;;;;;;;;;;10.20;99.90;;;;;;6738875;88;20132;-79
2023/11/20 07:20:16;;;;;;;;;;;10.30;99.90;;;;;;6648165;89;20094;-78
2023/11/20 07:30:16;;;;;;;;;;;10.10;99.90;;;;;;6718224;88;20080;-79
2023/11/20 07:40:18;;;;;;;;;;;10.10;99.90;;;;;;6650726;89;20127;-79
2023/11/20 07:50:18;;;;;;;;;;;10.20;99.90;;;;;;6648799;89;20084;-78
2023/11/20 08:00:19;;;;;;;;;;;10.40;99.90;;;;;;6653467;89;20089;-79
2023/11/20 08:10:19;;;;;;;;;;;10.40;99.90;;;;;;6741688;88;20505;-78
2023/11/20 08:20:20;;;;;;;;;;;10.60;99.90;;;;;;6741096;88;20573;-79
2023/11/20 08:30:20;;;;;;;;;;;11.00;99.90;;;;;;6740717;88;20103;-79
2023/11/20 08:40:21;;;;;;;;;;;11.50;99.90;;;;;;6737766;88;20089;-77
2023/11/20 08:50:25;;;;;;;;;;;11.90;99.90;;;;;;6735804;88;20057;-78
2023/11/20 09:00:26;;;;;;;;;;;11.80;99.90;;;;;;6739136;88;20545;-79
2023/11/20 09:10:27;;;;;;;;;;;11.50;99.90;;;;;;6746538;88;20082;-79
2023/11/20 09:20:27;;;;;;;;;;;12.40;99.90;;;;;;6748838;88;20068;-80
2023/11/20 09:30:30;;;;;;;;;;;13.10;99.90;;;;;;6747288;88;20173;-80
2023/11/20 09:40:31;;;;;;;;;;;13.90;99.90;;;;;;6743745;88;20171;-79
2023/11/20 09:50:32;;;;;;;;;;;14.10;99.90;;;;;;6730992;88;20085;-79
2023/11/20 10:00:35;;;;;;;;;;;13.70;99.90;;;;;;6733195;88;20072;-79
2023/11/20 10:10:35;;;;;;;;;;;13.90;99.90;;;;;;6733627;88;20083;-79
2023/11/20 10:20:47;;;;;;;;;;;13.60;99.90;;;;;;6732038;88;20079;-78
2023/11/20 10:30:48;;;;;;;;;;;13.60;99.90;;;;;;6741789;88;20063;-78
2023/11/20 10:40:48;;;;;;;;;;;13.50;99.90;;;;;;6743559;88;20066;-79
2023/11/20 10:50:51;;;;;;;;;;;13.20;99.90;;;;;;6728013;88;20043;-79
2023/11/20 11:00:53;;;;;;;;;;;12.90;99.90;;;;;;6674251;88;20422;-79
2023/11/20 11:10:54;;;;;;;;;;;12.60;99.90;;;;;;6690040;88;20613;-79
2023/11/20 11:20:56;;;;;;;;;;;12.90;99.90;;;;;;6734637;88;20179;-78
2023/11/20 11:30:56;;;;;;;;;;;12.70;99.90;;;;;;6650266;89;20621;-78
2023/11/20 11:41:09;;;;;;;;;;;12.90;99.90;;;;;;6738087;88;20122;-79
2023/11/20 11:51:20;;;;;;;;;;;13.60;99.90;;;;;;6663051;88;20114;-77
2023/11/20 12:01:20;;;;;;;;;;;13.20;99.90;;;;;;6657035;88;20155;-79
2023/11/20 12:11:41;;;;;;;;;;;13.10;99.90;;;;;;6657432;77;20072;-83
2023/11/20 12:21:43;;;;;;;;;;;12.60;99.90;;;;;;6647500;89;20854;-80
2023/11/20 12:31:43;;;;;;;;;;;12.40;99.90;;;;;;6648972;89;20201;-80
2023/11/20 12:41:45;;;;;;;;;;;12.60;99.90;;;;;;6661969;88;20165;-81
2023/11/20 12:51:45;;;;;;;;;;;12.60;99.90;;;;;;6634256;89;20170;-83
2023/11/20 13:01:49;;;;;;;;;;;12.60;99.90;;;;;;6631670;89;20644;-81
2023/11/20 13:11:51;;;;;;;;;;;12.50;99.90;;;;;;6637016;88;20031;-83
2023/11/20 13:21:52;;;;;;;;;;;12.50;99.90;;;;;;6663851;88;20061;-82
2023/11/20 13:31:52;;;;;;;;;;;12.60;99.90;;;;;;6664361;88;20128;-82
2023/11/20 13:41:55;;;;;;;;;;;12.60;99.90;;;;;;6661066;89;20803;-83
2023/11/20 13:51:56;;;;;;;;;;;12.50;99.90;;;;;;6664364;88;20126;-83
2023/11/20 14:02:07;;;;;;;;;;;12.50;99.90;;;;;;6624784;88;20099;-85
2023/11/20 14:12:55;;;;;;;;;;;;;;;;;;;;;
2023/11/20 15:27:19;;;;;;;;;;;11.90;99.90;;;;;;6682868;88;21194;-82
2023/11/20 17:33:54;;;;;;;;;;;9.80;99.90;;;;;;6679510;88;20075;-81
2023/11/20 17:54:42;;;;;;;;;;;9.60;99.90;;;;;;6655327;89;20580;-83
2023/11/20 18:04:43;;;;;;;;;;;9.50;99.90;;;;;;6644023;89;20092;-79
2023/11/20 18:14:44;;;;;;;;;;;9.30;99.90;;;;;;6648604;89;20065;-80
2023/11/20 18:24:44;;;;;;;;;;;9.20;99.90;;;;;;6632895;78;20062;-79
2023/11/20 18:34:44;;;;;;;;;;;9.10;99.90;;;;;;6650792;89;20086;-80
2023/11/20 18:44:45;;;;;;;;;;;9.00;99.90;;;;;;6644493;89;20303;-79
2023/11/20 18:54:46;;;;;;;;;;;9.00;99.90;;;;;;6648866;89;20555;-78
2023/11/20 19:04:47;;;;;;;;;;;8.80;99.90;;;;;;6650044;89;20089;-79
2023/11/20 19:14:47;;;;;;;;;;;8.80;99.90;;;;;;6646708;89;20116;-80
2023/11/20 19:24:48;;;;;;;;;;;8.80;99.90;;;;;;6644893;89;20196;-79
2023/11/20 19:34:48;;;;;;;;;;;8.90;99.90;;;;;;6643117;89;20662;-79
2023/11/20 19:44:51;;;;;;;;;;;8.80;99.90;;;;;;6650565;89;20529;-78
2023/11/20 19:54:52;;;;;;;;;;;8.70;99.90;;;;;;6650037;89;20089;-79
2023/11/20 20:04:52;;;;;;;;;;;8.60;99.90;;;;;;6661849;89;20150;-79
2023/11/20 20:14:53;;;;;;;;;;;8.60;99.90;;;;;;6663993;89;20087;-79
2023/11/20 20:24:53;;;;;;;;;;;8.70;99.90;;;;;;6664843;89;20076;-79
2023/11/20 20:34:54;;;;;;;;;;;8.60;99.90;;;;;;6652940;89;20053;-79
2023/11/20 20:44:55;;;;;;;;;;;8.70;99.90;;;;;;6628516;89;20067;-81
2023/11/20 20:54:59;;;;;;;;;;;8.70;99.90;;;;;;6631781;89;20074;-80
2023/11/20 21:04:59;;;;;;;;;;;8.60;99.90;;;;;;6661731;89;20131;-81
2023/11/20 21:15:00;;;;;;;;;;;8.70;99.90;;;;;;6648659;89;20065;-79
2023/11/20 21:25:00;;;;;;;;;;;8.70;99.90;;;;;;6644618;89;20065;-78
2023/11/20 21:35:01;;;;;;;;;;;8.60;99.90;;;;;;6643562;89;20086;-80
2023/11/20 21:45:03;;;;;;;;;;;8.50;99.90;;;;;;6645219;89;20668;-79
2023/11/20 21:55:04;;;;;;;;;;;8.50;99.90;;;;;;6631167;89;20090;-81
2023/11/20 22:05:04;;;;;;;;;;;8.60;99.90;;;;;;6646264;89;20512;-81
2023/11/20 22:15:05;;;;;;;;;;;8.60;99.90;;;;;;6662262;89;20060;-80
2023/11/20 22:25:06;;;;;;;;;;;8.50;99.90;;;;;;6661272;89;20529;-80
2023/11/20 22:35:07;;;;;;;;;;;8.50;99.90;;;;;;6660806;89;20064;-80
2023/11/20 22:45:08;;;;;;;;;;;8.60;99.90;;;;;;6659855;89;20100;-80
2023/11/20 22:55:09;;;;;;;;;;;8.60;99.90;;;;;;6660029;89;20092;-80
2023/11/20 23:05:10;;;;;;;;;;;8.60;99.90;;;;;;6662840;89;20562;-79
2023/11/20 23:15:14;;;;;;;;;;;8.60;99.90;;;;;;6668422;89;20068;-78
2023/11/20 23:25:16;;;;;;;;;;;8.60;99.90;;;;;;6657128;89;20066;-78
2023/11/20 23:35:17;;;;;;;;;;;8.60;99.90;;;;;;6657580;89;20057;-78
2023/11/20 23:45:18;;;;;;;;;;;8.60;99.90;;;;;;6656892;89;20073;-78
2023/11/20 23:55:19;;;;;;;;;;;8.60;99.90;;;;;;6656375;89;20069;-79
